Bryce Canyon Airport Bryce Canyon US
ICAO: KBCE
IATA: BCE
Category: Medium
Scheduled Services: No

Elevation: 7590 ft
TransAlt. 18000 ft.

Airport Communications:
ASOS:135.475
CEDAR CITY RDO:122.2
CTAF/UNICOM:122.8

KBCE Zoom In..

Runways:

(A) RW 03 length 7395 ft width 75 ft
---- / hdg 33

(B) RW 21 length 7395 ft width 75 ft
---- / hdg 213

Location; KBCE
Day. 26 / Time. 13.53 Zulu
* Altimeter: 30.07
* Temperature: 13° c. 55.4°f.
* Wind from: 170° Speed 10 kn with Gusts up to 16 kn.
Dewpoint: -07° c.
Visibility: 10 Statute Miles.
Clouds: Clear (automated report).

KBCE 261353Z AUTO 17010G16KT 10SM CLR 13/M07 A3007 RMK AO2 SLP062 T01281072


Wind From 170°
Speed 10 kn.

 
 
jpsmedia.com for Web Design SOUNDCLOUD worldairports.se 2018   terms of use